< < Back
Terminal Aerodrome Forecast


Current Version              Previous Versions:   1  2  3  4  5  6  7  8  9  

Terminal Aerodrome Forecast

213
FTUS42 KCAE 251017 AAE
TAFCAE
TAF AMD
KCAE 251017Z 2510/2606 VRB03KT P6SM SCT035
     FM251500 14010KT P6SM SCT050=

Latest METAR

876
SAUS80 KWBC 251100 RRD
MTRCAE
METAR KCAE 251056Z COR 00000KT 10SM BKN055 BKN150 16/13 A3031 RMK AO2
SLP261 T01560128


USA.gov is the U.S. government's official web portal to all federal, state and local government web resources and services.